Latest Weather Observations for Moorabbin Airport

IDV60801

Issued at 12:03 pm EST Monday 29 May 2017 (issued every 30 minutes, with the page automatically refreshed every 10 minutes)

About weather observations | Map of weather stations | Latest weather observations for VIC | Other Formats
Station Details ID: 086077 Name: MOORABBIN AIRPORT Lat: -37.98 Lon: 145.10 Height: 12.1 m
Data from the previous 72 hours. | See also: Recent months at Moorabbin Airport
Date/Time
EST
Temp
°C
App
Temp
°C
Dew
Point
°C
Rel
Hum
%
Delta-T
°C
Wind Press
QNH
hPa
Press
MSL
hPa
Rain since
9am
mm
Dir  Spd
km/h
Gust
km/h
Spd
kts
Gust
kts
29/12:00pm 12.9 8.7 5.8 62 3.3 WNW 17 22 9 12 1019.7 1019.6 -
29/11:30am 12.5 8.4 6.3 66 2.9 WNW 17 26 9 14 1019.8 1019.8 0.0
29/11:00am 11.4 6.6 5.7 68 2.6 NW 20 30 11 16 1020.0 1020.0 0.0
29/10:30am 11.8 7.3 5.9 67 2.8 WNW 19 32 10 17 1019.9 1019.9 0.0
29/10:00am 10.5 5.9 5.5 71 2.3 NW 19 24 10 13 1019.6 1019.6 0.0
29/09:30am 11.0 6.3 6.2 72 2.2 WNW 20 28 11 15 1019.5 1019.5 0.0
29/09:00am 10.0 5.8 5.8 75 1.9 NW 17 28 9 15 1019.1 1019.1 0.4
29/08:30am 9.0 4.6 5.0 76 1.8 NW 17 24 9 13 1018.7 1018.7 0.4
29/08:00am 8.3 4.3 4.9 79 1.5 NW 15 22 8 12 1018.5 1018.5 0.4
29/07:30am 7.4 3.7 4.4 81 1.3 NW 13 19 7 10 1018.3 1018.3 0.4
29/07:00am 7.6 3.9 4.6 81 1.3 NW 13 19 7 10 1017.8 1017.8 0.4
29/06:30am 7.6 3.6 4.7 82 1.3 NW 15 20 8 11 1017.2 1017.2 0.4
29/06:00am 7.5 3.8 4.6 82 1.3 NW 13 19 7 10 1016.8 1016.8 0.4
29/05:30am 7.7 4.0 4.5 80 1.4 NW 13 19 7 10 1016.6 1016.6 0.4
29/05:00am 7.9 3.8 4.5 79 1.5 NW 15 22 8 12 1016.3 1016.3 0.4
29/04:30am 7.9 4.6 4.7 80 1.4 NW 11 17 6 9 1016.0 1016.0 0.4
29/04:00am 7.9 4.6 4.7 80 1.4 NW 11 19 6 10 1015.8 1015.8 0.4
29/03:30am 8.1 4.1 4.7 79 1.5 NW 15 22 8 12 1015.4 1015.4 0.4
29/03:00am 8.5 4.1 4.9 78 1.6 WNW 17 28 9 15 1015.3 1015.3 0.4
29/02:30am 8.3 3.9 4.7 78 1.6 NW 17 24 9 13 1015.2 1015.2 0.4
29/02:00am 8.8 4.1 5.0 77 1.7 WNW 19 30 10 16 1015.0 1015.0 0.4
29/01:30am 8.7 4.7 5.1 78 1.6 WNW 15 24 8 13 1014.6 1014.6 0.4
29/01:00am 8.3 3.9 4.5 77 1.7 WNW 17 24 9 13 1014.5 1014.5 0.4
29/12:30am 8.9 4.5 4.9 76 1.8 WNW 17 26 9 14 1014.5 1014.5 0.4
29/12:00am 8.8 4.9 5.2 78 1.6 WNW 15 22 8 12 1014.2 1014.2 0.4
 
Date/Time
EST
Temp
°C
App
Temp
°C
Dew
Point
°C
Rel
Hum
%
Delta-T
°C
Wind Press
QNH
hPa
Press
MSL
hPa
Rain since
9am
mm
Dir  Spd
km/h
Gust
km/h
Spd
kts
Gust
kts
28/11:30pm 8.7 4.7 5.1 78 1.6 WNW 15 20 8 11 1014.0 1014.0 0.4
28/11:00pm 8.5 4.1 4.7 77 1.7 WNW 17 24 9 13 1013.6 1013.6 0.4
28/10:30pm 8.6 3.8 4.6 76 1.8 WNW 19 33 10 18 1013.5 1013.5 0.4
28/10:00pm 8.3 3.8 4.3 76 1.7 WNW 17 28 9 15 1013.0 1013.0 0.4
28/09:30pm 8.6 2.8 4.2 74 1.9 WNW 24 33 13 18 1012.6 1012.6 0.4
28/09:00pm 8.9 3.5 4.5 74 1.9 WNW 22 32 12 17 1012.3 1012.3 0.4
28/08:30pm 8.9 3.5 4.5 74 1.9 WNW 22 33 12 18 1011.7 1011.7 0.4
28/08:00pm 9.3 3.9 4.7 73 2.0 WNW 22 37 12 20 1011.5 1011.5 0.4
28/07:30pm 9.2 4.1 4.2 71 2.2 WNW 20 32 11 17 1011.1 1011.1 0.4
28/07:00pm 9.6 4.8 4.6 71 2.2 WNW 19 30 10 16 1010.6 1010.6 0.4
28/06:30pm 9.8 4.8 4.4 69 2.4 WNW 20 33 11 18 1010.2 1010.2 0.4
28/06:00pm 9.8 5.0 4.6 70 2.3 WNW 19 32 10 17 1009.9 1009.9 0.4
28/05:30pm 9.9 4.9 4.7 70 2.3 WNW 20 30 11 16 1009.6 1009.6 0.4
28/05:00pm 10.5 5.2 5.1 69 2.5 W 22 35 12 19 1009.1 1009.1 0.4
28/04:30pm 10.3 4.8 5.7 73 2.1 W 24 41 13 22 1008.6 1008.6 0.4
28/04:22pm 10.2 3.8 5.4 72 2.2 W 28 46 15 25 1008.5 1008.5 0.4
28/04:00pm 11.1 5.5 5.4 68 2.6 WNW 24 32 13 17 1007.9 1007.9 0.4
28/03:30pm 11.4 5.8 5.5 67 2.7 WNW 24 41 13 22 1007.8 1007.8 0.4
28/03:00pm 10.5 5.6 5.1 69 2.5 WNW 20 33 11 18 1007.5 1007.5 0.4
28/02:30pm 11.0 6.5 6.9 76 1.9 W 20 35 11 19 1007.5 1007.5 0.4
28/02:00pm 11.1 6.6 6.0 71 2.4 W 19 26 10 14 1007.1 1007.1 0.4
28/01:30pm 12.2 8.0 5.6 64 3.1 W 17 39 9 21 1007.0 1007.0 0.0
28/01:00pm 12.8 6.7 5.0 59 3.6 WSW 26 39 14 21 1007.0 1007.0 0.0
28/12:30pm 13.6 8.9 6.0 60 3.6 WNW 20 32 11 17 1007.1 1007.1 0.0
28/12:00pm 13.6 8.5 6.0 60 3.6 WNW 22 39 12 21 1007.6 1007.6 0.0
28/11:30am 12.9 8.2 6.0 63 3.3 NW 20 35 11 19 1007.9 1007.9 0.0
28/11:00am 11.9 6.5 6.2 68 2.7 NW 24 37 13 20 1008.0 1008.0 0.0
28/10:30am 11.9 6.1 6.2 68 2.7 NW 26 37 14 20 1007.8 1007.8 0.0
28/10:00am 12.1 7.5 6.6 69 2.6 NW 20 33 11 18 1007.7 1007.7 0.0
28/09:30am 12.2 6.9 6.7 69 2.6 NW 24 35 13 19 1007.6 1007.6 0.0
28/09:00am 11.7 7.9 7.6 76 2.0 NW 17 28 9 15 1007.6 1007.6 8.6
28/08:30am 11.1 8.2 8.0 81 1.5 NW 13 24 7 13 1007.7 1007.7 8.6
28/08:00am 10.7 7.8 8.1 84 1.3 NW 13 20 7 11 1007.5 1007.5 8.6
28/07:30am 10.6 7.7 8.2 85 1.2 NW 13 19 7 10 1007.1 1007.1 8.6
28/07:00am 10.5 8.0 8.3 86 1.1 NW 11 15 6 8 1007.1 1007.1 8.4
28/06:30am 10.5 8.0 8.1 85 1.2 NNW 11 15 6 8 1006.9 1006.9 8.4
28/06:00am 10.8 8.0 8.4 85 1.2 NW 13 24 7 13 1006.9 1006.9 8.0
28/05:50am 10.8 8.3 8.4 85 1.2 WNW 11 19 6 10 1006.9 1006.9 7.8
28/05:32am 11.0 8.5 8.4 84 1.3 NNW 11 15 6 8 1006.8 1006.8 7.4
28/05:30am 11.0 8.9 8.4 84 1.3 NNW 9 13 5 7 1006.8 1006.8 7.4
28/05:00am 11.4 8.1 8.1 80 1.6 NNW 15 20 8 11 1006.5 1006.5 7.2
28/04:30am 11.1 7.5 8.3 83 1.4 NNW 17 24 9 13 1006.5 1006.5 7.2
28/04:00am 10.6 7.3 8.0 84 1.3 NNW 15 19 8 10 1006.7 1006.7 7.2
28/03:30am 10.5 6.9 8.4 87 1.0 N 17 20 9 11 1006.6 1006.6 7.2
28/03:00am 10.0 6.0 8.3 89 0.8 N 19 22 10 12 1006.6 1006.6 7.2
28/02:30am 10.1 6.1 8.2 88 0.9 N 19 22 10 12 1007.3 1007.3 7.0
28/02:00am 10.2 6.0 8.3 88 0.9 NNW 20 28 11 15 1007.8 1007.8 7.0
28/01:30am 10.4 4.7 8.5 88 0.9 WNW 28 43 15 23 1008.5 1008.5 6.0
28/01:04am 10.8 4.0 7.5 80 1.6 WNW 33 65 18 35 1008.1 1008.1 2.8
28/01:00am 11.3 4.0 7.2 76 2.0 WNW 35 65 19 35 1007.9 1007.9 1.0
28/12:53am 13.4 7.2 10.0 80 1.8 NNW 33 52 18 28 1008.0 1008.0 0.6
28/12:52am 13.8 7.7 10.6 81 1.7 N 33 52 18 28 1007.7 1007.7 0.6
28/12:42am 13.9 8.0 10.3 79 1.9 N 32 57 17 31 1005.3 1005.3 0.6
28/12:30am 14.5 8.5 10.1 75 2.3 N 32 44 17 24 1006.7 1006.7 0.4
28/12:00am 14.4 8.4 10.0 75 2.3 N 32 48 17 26 1007.0 1007.0 0.4
 
Date/Time
EST
Temp
°C
App
Temp
°C
Dew
Point
°C
Rel
Hum
%
Delta-T
°C
Wind Press
QNH
hPa
Press
MSL
hPa
Rain since
9am
mm
Dir  Spd
km/h
Gust
km/h
Spd
kts
Gust
kts
27/11:30pm 14.8 8.5 9.8 72 2.6 N 33 48 18 26 1007.4 1007.4 0.4
27/11:00pm 15.4 8.7 9.7 69 3.0 N 35 46 19 25 1008.0 1008.0 0.4
27/10:46pm 15.6 9.9 9.7 68 3.1 N 30 50 16 27 1008.3 1008.3 0.2
27/10:30pm 15.1 9.8 9.9 71 2.7 N 28 39 15 21 1008.4 1008.4 0.2
27/10:00pm 16.2 10.6 8.7 61 3.8 N 28 46 15 25 1008.9 1008.9 0.0
27/09:56pm 16.3 10.7 8.8 61 3.8 N 28 46 15 25 1008.9 1008.9 0.0
27/09:30pm 16.5 11.3 8.7 60 4.0 N 26 43 14 23 1009.2 1009.2 0.0
27/09:00pm 16.0 10.5 9.0 63 3.6 N 28 39 15 21 1009.3 1009.3 0.0
27/08:41pm 16.2 9.8 8.7 61 3.8 N 32 50 17 27 1009.3 1009.3 0.0
27/08:30pm 16.5 10.0 9.0 61 3.9 N 33 46 18 25 1009.2 1009.2 0.0
27/08:00pm 16.6 10.3 8.8 60 4.0 N 32 48 17 26 1009.3 1009.3 0.0
27/07:30pm 16.5 10.2 9.0 61 3.9 N 32 44 17 24 1009.7 1009.7 0.0
27/07:00pm 16.4 10.8 8.9 61 3.9 N 28 35 15 19 1010.3 1010.3 0.0
27/06:30pm 16.6 10.1 8.8 60 4.0 N 33 43 18 23 1010.3 1010.3 0.0
27/06:00pm 16.7 10.4 9.1 61 3.9 N 32 41 17 22 1010.5 1010.5 0.0
27/05:30pm 16.7 10.2 9.1 61 3.9 N 33 44 18 24 1010.4 1010.4 0.0
27/05:00pm 16.0 11.2 8.7 62 3.7 N 24 37 13 20 1010.8 1010.8 0.0
27/04:30pm 16.6 12.2 9.1 61 3.9 N 22 30 12 16 1011.1 1011.1 0.0
27/04:00pm 17.0 11.4 8.9 59 4.2 N 28 35 15 19 1011.3 1011.3 0.0
27/03:30pm 17.1 10.9 9.5 61 4.0 N 32 43 17 23 1011.6 1011.6 0.0
27/03:00pm 17.1 11.3 9.5 61 4.0 N 30 41 16 22 1011.7 1011.7 0.0
27/02:39pm 17.1 10.7 9.5 61 4.0 N 33 54 18 29 1011.8 1011.8 0.0
27/02:30pm 17.3 10.6 9.5 60 4.1 N 35 48 19 26 1011.9 1011.9 0.0
27/02:00pm 17.4 11.1 9.6 60 4.1 N 33 44 18 24 1012.4 1012.4 0.0
27/01:35pm 17.5 10.4 9.4 59 4.2 NNW 37 56 20 30 1012.7 1012.7 0.0
27/01:30pm 17.5 10.4 9.4 59 4.2 NNW 37 52 20 28 1012.8 1012.8 0.0
27/01:10pm 17.7 11.7 10.1 61 4.0 NNW 32 50 17 27 1013.3 1013.3 0.0
27/01:00pm 17.3 9.8 9.5 60 4.1 N 39 54 21 29 1013.4 1013.4 0.0
27/12:57pm 17.2 10.4 9.4 60 4.1 N 35 54 19 29 1013.4 1013.4 0.0
27/12:30pm 17.1 10.4 9.5 61 4.0 N 35 46 19 25 1014.0 1014.0 0.0
27/12:00pm 17.5 11.8 9.9 61 4.0 NNW 30 43 16 23 1014.7 1014.7 0.0
27/11:30am 17.1 10.4 9.8 62 3.8 N 35 48 19 26 1015.3 1015.3 0.0
27/11:05am 16.8 10.1 9.7 63 3.7 N 35 54 19 29 1015.8 1015.8 0.0
27/11:00am 16.7 10.0 9.6 63 3.7 N 35 50 19 27 1015.9 1015.9 0.0
27/10:32am 16.6 11.4 10.2 66 3.4 N 28 46 15 25 1016.4 1016.4 0.0
27/10:30am 16.4 10.4 10.0 66 3.4 N 32 46 17 25 1016.5 1016.5 0.0
27/10:00am 15.4 10.4 9.7 69 3.0 NNW 26 39 14 21 1016.7 1016.7 0.0
27/09:30am 14.8 9.5 10.0 73 2.5 N 28 39 15 21 1016.9 1016.9 0.0
27/09:00am 14.4 9.5 10.0 75 2.3 N 26 33 14 18 1017.2 1017.2 0.0
27/08:30am 13.9 8.7 10.1 78 2.0 N 28 41 15 22 1017.2 1017.2 0.0
27/08:00am 13.6 8.0 10.0 79 1.9 N 30 37 16 20 1017.1 1017.1 0.0
27/07:30am 13.4 8.9 10.0 80 1.8 N 24 32 13 17 1017.1 1017.1 0.0
27/07:00am 13.3 9.2 10.1 81 1.6 N 22 32 12 17 1017.2 1017.2 0.0
27/06:30am 13.3 9.6 10.3 82 1.6 N 20 28 11 15 1017.2 1017.2 0.0
27/06:00am 13.6 9.3 10.8 83 1.5 N 24 30 13 16 1017.0 1017.0 0.0
27/05:30am 13.1 9.1 10.6 85 1.3 N 22 30 12 16 1017.0 1017.0 0.0
27/05:00am 12.9 9.9 10.8 87 1.1 N 17 20 9 11 1017.3 1017.3 0.0
27/04:30am 12.7 9.3 10.6 87 1.1 N 19 24 10 13 1017.4 1017.4 0.0
27/04:00am 13.0 9.6 10.7 86 1.2 N 19 26 10 14 1017.5 1017.5 0.0
27/03:30am 12.8 9.5 10.9 88 1.0 N 19 22 10 12 1017.7 1017.7 0.0
27/03:00am 12.1 9.0 10.3 89 0.9 N 17 22 9 12 1018.0 1018.0 0.0
27/02:30am 11.9 8.7 10.1 89 0.9 N 17 22 9 12 1018.2 1018.2 0.0
27/02:00am 11.8 8.7 10.2 90 0.8 N 17 22 9 12 1018.4 1018.4 0.0
27/01:30am 11.8 8.7 10.2 90 0.8 N 17 20 9 11 1018.6 1018.6 0.0
27/01:00am 11.3 8.8 9.7 90 0.8 N 13 17 7 9 1018.8 1018.8 0.0
27/12:30am 10.8 8.9 9.1 89 0.8 N 9 11 5 6 1019.1 1019.1 0.0
27/12:00am 11.0 9.1 9.1 88 0.9 N 9 11 5 6 1019.2 1019.2 0.0
 
Date/Time
EST
Temp
°C
App
Temp
°C
Dew
Point
°C
Rel
Hum
%
Delta-T
°C
Wind Press
QNH
hPa
Press
MSL
hPa
Rain since
9am
mm
Dir  Spd
km/h
Gust
km/h
Spd
kts
Gust
kts
26/11:30pm 11.0 8.7 9.1 88 0.9 NNW 11 13 6 7 1019.4 1019.4 0.0
26/11:00pm 11.1 8.9 9.4 89 0.8 NNW 11 13 6 7 1019.5 1019.5 0.0
26/10:30pm 8.9 6.9 7.2 89 0.8 NNW 7 9 4 5 1019.6 1019.6 0.0
26/10:00pm 9.0 7.2 7.1 88 0.9 N 6 6 3 3 1019.7 1019.7 0.0
26/09:30pm 9.5 7.8 7.4 87 1.0 N 6 7 3 4 1019.9 1019.9 0.0
26/09:00pm 10.0 8.4 7.8 86 1.1 N 6 7 3 4 1019.9 1019.9 0.0
26/08:30pm 10.2 8.4 7.3 82 1.4 N 6 7 3 4 1019.9 1019.9 0.0
26/08:00pm 10.7 10.1 7.4 80 1.6 CALM 0 0 0 0 1019.8 1019.8 0.0
26/07:30pm 11.2 10.7 7.9 80 1.6 CALM 0 6 0 3 1019.8 1019.8 0.0
26/07:00pm 11.3 10.7 7.2 76 2.0 CALM 0 0 0 0 1019.8 1019.8 0.0
26/06:30pm 12.3 11.0 7.6 73 2.3 W 4 6 2 3 1019.7 1019.7 0.0
26/06:00pm 12.9 11.3 8.0 72 2.4 WNW 6 9 3 5 1019.6 1019.6 0.0
26/05:30pm 12.3 10.3 7.0 70 2.5 SSE 7 9 4 5 1019.5 1019.5 0.0
26/05:00pm 12.9 10.9 7.1 68 2.8 S 7 9 4 5 1019.6 1019.6 0.0
26/04:30pm 13.8 11.2 7.8 67 3.0 S 11 13 6 7 1019.6 1019.6 0.0
26/04:00pm 14.4 11.4 7.9 65 3.2 S 13 17 7 9 1019.7 1019.7 0.0
26/03:30pm 14.8 11.8 7.6 62 3.6 S 13 17 7 9 1019.7 1019.7 0.0
26/03:00pm 15.2 12.2 7.7 61 3.7 S 13 15 7 8 1019.7 1019.7 0.0
26/02:30pm 15.4 12.8 7.7 60 3.8 SSW 11 17 6 9 1020.1 1020.1 0.0
26/02:00pm 15.2 12.9 7.5 60 3.8 S 9 15 5 8 1020.3 1020.3 0.0
26/01:30pm 15.3 13.1 7.8 61 3.7 SW 9 13 5 7 1020.7 1020.7 0.0
26/01:00pm 15.3 12.8 8.1 62 3.6 SSW 11 15 6 8 1021.0 1021.0 0.0
26/12:30pm 14.8 12.4 8.7 67 3.1 SW 11 15 6 8 1021.5 1021.5 0.0

Other Formats:

Comma delimited format used in spreadsheet applications
http://www.bom.gov.au/fwo/IDV60801/IDV60801.94870.axf

JavaScript Object Notation format (JSON) in row-major order
http://www.bom.gov.au/fwo/IDV60801/IDV60801.94870.json